createdAt,value
2022-11-24T05:11:30.780Z,40.90
2022-11-24T05:14:34.097Z,43.63
2022-11-24T05:17:38.955Z,40.30
2022-11-24T05:20:41.823Z,41.95
2022-11-24T05:23:44.753Z,39.85
2022-11-24T05:26:47.386Z,39.80
2022-11-24T05:29:50.033Z,37.42
2022-11-24T05:32:52.890Z,38.55
2022-11-24T05:35:55.414Z,36.70
2022-11-24T05:38:58.364Z,36.60
2022-11-24T05:42:25.719Z,37.60
2022-11-24T05:45:28.656Z,36.90
2022-11-24T05:48:31.268Z,38.15
2022-11-24T05:51:34.572Z,36.03
2022-11-24T05:54:37.083Z,33.63
2022-11-24T05:57:39.843Z,32.88
2022-11-24T06:00:42.413Z,32.25
2022-11-24T06:03:45.124Z,33.17
2022-11-24T06:06:47.833Z,33.10
2022-11-24T06:09:50.694Z,34.00
2022-11-24T06:12:53.577Z,32.33
2022-11-24T06:16:01.695Z,31.35
2022-11-24T06:19:04.162Z,30.35
2022-11-24T06:22:06.818Z,29.67
2022-11-24T06:25:09.607Z,30.02
2022-11-24T06:28:12.441Z,28.45
2022-11-24T06:31:15.324Z,28.70
2022-11-24T06:34:18.340Z,30.45
2022-11-24T06:37:20.904Z,30.15
2022-11-24T06:40:24.267Z,29.85
2022-11-24T06:43:28.866Z,30.02
2022-11-24T06:46:31.769Z,28.52
2022-11-24T06:49:34.396Z,27.05
2022-11-24T06:52:37.145Z,28.48
2022-11-24T06:55:40.726Z,26.92
2022-11-24T06:58:46.159Z,27.17
2022-11-24T07:01:48.698Z,27.05
2022-11-24T07:04:51.493Z,27.20
2022-11-24T07:07:56.029Z,26.35
2022-11-24T07:11:11.286Z,27.60
2022-11-24T07:14:13.890Z,27.05
2022-11-24T07:17:17.010Z,29.73
2022-11-24T07:20:19.568Z,27.62
2022-11-24T07:26:53.047Z,28.58
2022-11-24T07:29:55.961Z,26.85
2022-11-24T07:33:02.852Z,28.27
2022-11-24T07:36:07.422Z,26.08
2022-11-24T07:39:09.935Z,26.77
2022-11-24T07:42:13.473Z,25.90
2022-11-24T07:45:16.120Z,25.98
2022-11-24T07:48:18.847Z,27.55
2022-11-24T07:51:21.315Z,25.98
2022-11-24T07:54:24.078Z,27.10
2022-11-24T07:57:26.578Z,27.40
2022-11-24T08:00:29.450Z,26.12
2022-11-24T08:03:32.277Z,24.85
2022-11-24T08:10:13.671Z,27.87
2022-11-24T08:13:16.663Z,26.25
2022-11-24T08:16:19.771Z,27.67
2022-11-24T08:19:23.279Z,27.67
2022-11-24T08:22:25.869Z,28.10
2022-11-24T08:25:32.446Z,26.95
2022-11-24T08:28:35.874Z,27.73
2022-11-24T08:31:39.557Z,28.70
2022-11-24T08:34:42.101Z,27.70
2022-11-24T08:37:44.896Z,29.20
2022-11-24T08:40:50.534Z,28.17
2022-11-24T08:43:58.857Z,28.02
2022-11-24T08:54:32.795Z,28.70
2022-11-24T08:57:36.040Z,27.25
2022-11-24T09:00:38.571Z,29.85
2022-11-24T09:03:48.599Z,26.95
2022-11-24T09:06:54.492Z,28.05
2022-11-24T09:09:57.268Z,28.25
2022-11-24T09:12:59.949Z,28.30
2022-11-24T09:16:11.337Z,29.67
2022-11-24T09:19:13.972Z,28.12
2022-11-24T09:22:19.221Z,28.42
2022-11-24T09:25:23.596Z,27.60
2022-11-24T09:28:26.433Z,26.80
2022-11-24T09:31:31.289Z,25.75
2022-11-24T09:34:34.477Z,26.60
2022-11-24T09:37:37.229Z,26.33
2022-11-24T09:40:40.409Z,27.10
2022-11-24T09:43:46.168Z,25.58
2022-11-24T09:46:59.872Z,25.65
2022-11-24T09:50:04.476Z,26.00
2022-11-24T09:53:23.084Z,25.00
2022-11-24T09:56:28.869Z,24.63
2022-11-24T09:59:32.032Z,25.52
2022-11-24T10:02:34.910Z,27.40
2022-11-24T10:05:37.656Z,24.70
2022-11-24T10:08:45.820Z,27.37
2022-11-24T10:12:05.395Z,27.52
2022-11-24T10:22:59.718Z,24.37
2022-11-24T10:26:13.273Z,25.67
2022-11-24T10:29:39.205Z,25.33
2022-11-24T10:32:49.458Z,25.12
2022-11-24T10:36:07.794Z,25.88
2022-11-24T10:39:34.270Z,26.62
2022-11-24T10:42:37.442Z,25.52
2022-11-24T10:45:40.999Z,23.60
2022-11-24T10:48:49.237Z,24.87
2022-11-24T10:51:54.775Z,24.35
2022-11-24T10:55:03.172Z,24.35
2022-11-24T10:58:16.997Z,24.30
2022-11-24T11:01:28.659Z,23.45
2022-11-24T11:04:34.916Z,24.00
2022-11-24T11:07:37.541Z,22.70
2022-11-24T11:10:42.122Z,21.92
2022-11-24T11:13:56.909Z,23.52
2022-11-24T11:17:03.713Z,21.90
2022-11-24T11:20:26.956Z,21.17
2022-11-24T11:27:21.106Z,21.42
2022-11-24T11:34:26.777Z,21.35
2022-11-24T11:37:33.496Z,21.05
2022-11-24T11:40:37.031Z,19.67
2022-11-24T11:43:41.650Z,22.50
2022-11-24T12:02:16.921Z,19.05
2022-11-24T12:05:50.799Z,18.40
2022-11-24T12:09:41.493Z,18.77
2022-11-24T12:16:45.599Z,16.77
2022-11-24T12:20:26.697Z,17.95
2022-11-24T12:24:07.094Z,17.45
2022-11-24T12:27:47.864Z,17.58
2022-11-24T12:31:04.202Z,16.77
2022-11-24T12:34:31.802Z,15.93
2022-11-24T12:38:07.776Z,17.00
2022-11-24T12:45:13.258Z,16.35
2022-11-24T12:48:25.349Z,15.88
2022-11-24T12:51:32.322Z,17.25
2022-11-24T12:54:42.890Z,16.02
2022-11-24T12:57:53.903Z,16.97
2022-11-24T13:01:10.330Z,15.40
2022-11-24T13:04:42.205Z,15.95
2022-11-24T13:07:48.109Z,15.63
2022-11-24T13:10:56.359Z,16.60
2022-11-24T13:14:01.387Z,16.35
2022-11-24T13:17:31.146Z,15.80
2022-11-24T13:20:40.475Z,15.63
2022-11-24T13:23:43.085Z,15.57
2022-11-24T13:26:49.069Z,13.82
2022-11-24T13:33:31.997Z,14.63
2022-11-24T13:36:51.556Z,14.40
2022-11-24T13:39:56.228Z,14.87
2022-11-24T13:43:01.483Z,16.15
2022-11-24T13:46:04.241Z,15.48
2022-11-24T13:49:14.256Z,14.87
2022-11-24T13:53:00.267Z,15.73
2022-11-24T13:56:03.038Z,15.25
2022-11-24T13:59:29.929Z,14.70
2022-11-24T14:02:34.740Z,14.57
2022-11-24T14:05:40.091Z,14.50
2022-11-24T14:08:46.356Z,15.38
2022-11-24T14:12:05.309Z,15.05
2022-11-24T14:15:27.099Z,14.35
2022-11-24T14:18:31.511Z,15.85
2022-11-24T14:21:38.119Z,15.40
2022-11-24T14:24:45.252Z,14.87
2022-11-24T14:27:47.939Z,15.45
2022-11-24T14:30:51.511Z,15.18
2022-11-24T14:34:11.393Z,14.98
2022-11-24T14:37:14.067Z,15.25
2022-11-24T14:41:03.767Z,15.82
2022-11-24T14:44:19.615Z,15.10
2022-11-24T14:47:37.954Z,16.08
2022-11-24T14:50:41.827Z,16.45
2022-11-24T14:53:49.298Z,15.82
2022-11-24T14:57:06.344Z,15.80
2022-11-24T15:00:12.129Z,15.80
2022-11-24T15:03:18.746Z,16.75
2022-11-24T15:06:21.357Z,16.50
2022-11-24T15:09:49.531Z,17.70
2022-11-24T15:12:59.175Z,16.75
2022-11-24T15:16:06.626Z,15.98
2022-11-24T15:19:16.724Z,17.48
2022-11-24T15:22:37.886Z,18.20
2022-11-24T15:25:40.432Z,16.77
2022-11-24T15:28:43.171Z,17.15
2022-11-24T15:31:52.179Z,16.85
2022-11-24T15:34:55.208Z,16.67
2022-11-24T15:37:57.632Z,17.05
2022-11-24T15:41:01.817Z,17.95
2022-11-24T15:44:04.526Z,17.42
2022-11-24T15:47:08.815Z,16.67
2022-11-24T15:50:12.024Z,17.33
2022-11-24T15:53:40.748Z,17.25
2022-11-24T15:56:44.510Z,17.23
2022-11-24T15:59:47.591Z,17.10
2022-11-24T16:02:50.780Z,16.08
2022-11-24T16:05:55.394Z,16.75
2022-11-24T16:09:00.197Z,17.55
2022-11-24T16:12:06.198Z,17.48
2022-11-24T16:15:09.290Z,17.35
2022-11-24T16:18:13.932Z,17.40
2022-11-24T16:21:16.667Z,17.08
2022-11-24T16:24:19.474Z,17.55
2022-11-24T16:27:22.167Z,17.95
2022-11-24T16:30:25.429Z,17.83
2022-11-24T16:33:31.123Z,17.48
